createdAt,value
2022-09-06T00:00:46.947Z,57.82
2022-09-06T00:03:35.343Z,58.68
2022-09-06T00:06:23.714Z,58.60
2022-09-06T00:09:13.317Z,58.28
2022-09-06T00:12:01.634Z,58.40
2022-09-06T00:14:50.037Z,58.57
2022-09-06T00:17:38.332Z,58.63
2022-09-06T00:20:27.468Z,58.51
2022-09-06T00:23:16.254Z,58.61
2022-09-06T00:26:06.689Z,59.24
2022-09-06T00:28:54.986Z,59.72
2022-09-06T00:31:43.297Z,59.85
2022-09-06T00:34:31.538Z,59.77
2022-09-06T00:37:19.841Z,59.83
2022-09-06T00:40:09.627Z,60.05
2022-09-06T00:42:59.385Z,59.94
2022-09-06T00:45:47.855Z,60.03
2022-09-06T00:48:38.835Z,59.95
2022-09-06T00:51:29.693Z,59.96
2022-09-06T00:54:18.047Z,60.48
2022-09-06T00:57:06.801Z,60.18
2022-09-06T00:59:57.673Z,59.95
2022-09-06T01:02:46.084Z,60.28
2022-09-06T01:05:43.602Z,60.05
2022-09-06T01:08:54.570Z,60.60
2022-09-06T01:11:54.888Z,60.65
2022-09-06T01:14:57.131Z,60.38
2022-09-06T01:17:56.145Z,60.50
2022-09-06T01:20:56.682Z,60.67
2022-09-06T01:24:17.821Z,60.58
2022-09-06T01:27:42.748Z,60.39
2022-09-06T01:30:34.868Z,60.44
2022-09-06T01:33:31.153Z,60.50
2022-09-06T01:36:25.905Z,60.85
2022-09-06T01:39:27.877Z,60.51
2022-09-06T01:42:19.260Z,60.72
2022-09-06T01:45:12.301Z,60.98
2022-09-06T01:48:10.567Z,61.29
2022-09-06T01:51:11.028Z,60.90
2022-09-06T01:54:16.660Z,61.84
2022-09-06T01:57:16.294Z,62.24
2022-09-06T02:00:09.277Z,62.35
2022-09-06T02:03:10.491Z,62.33
2022-09-06T02:06:04.514Z,62.38
2022-09-06T02:08:57.154Z,62.42
2022-09-06T02:11:50.764Z,62.05
2022-09-06T02:14:44.502Z,61.80
2022-09-06T02:17:35.516Z,61.49
2022-09-06T02:20:27.991Z,61.76
2022-09-06T02:23:17.652Z,61.46
2022-09-06T02:26:11.050Z,61.95
2022-09-06T02:28:59.431Z,61.88
2022-09-06T02:31:54.758Z,61.61
2022-09-06T02:34:46.193Z,61.76
2022-09-06T02:37:36.210Z,61.43
2022-09-06T02:40:25.320Z,61.80
2022-09-06T02:43:13.698Z,62.02
2022-09-06T02:46:02.079Z,62.11
2022-09-06T02:48:50.414Z,61.65
2022-09-06T02:51:39.497Z,61.96
2022-09-06T02:54:29.146Z,62.04
2022-09-06T02:57:17.373Z,62.24
2022-09-06T03:00:06.800Z,62.01
2022-09-06T03:02:55.852Z,62.27
2022-09-06T03:05:47.742Z,61.93
2022-09-06T03:08:36.606Z,62.49
2022-09-06T03:11:26.250Z,61.94
2022-09-06T03:14:16.307Z,62.18
2022-09-06T03:17:05.353Z,62.19
2022-09-06T03:19:53.645Z,62.21
2022-09-06T03:22:42.054Z,62.34
2022-09-06T03:25:30.327Z,62.18
2022-09-06T03:28:21.147Z,62.58
2022-09-06T03:31:09.511Z,62.24
2022-09-06T03:33:57.817Z,62.79
2022-09-06T03:36:46.058Z,63.10
2022-09-06T03:39:34.377Z,63.08
2022-09-06T03:42:22.943Z,62.83
2022-09-06T03:45:12.653Z,63.06
2022-09-06T03:48:00.927Z,62.71
2022-09-06T03:50:50.982Z,63.31
2022-09-06T03:53:39.247Z,63.41
2022-09-06T03:56:27.564Z,63.32
2022-09-06T03:59:15.777Z,63.27
2022-09-06T04:02:06.601Z,63.36
2022-09-06T04:04:55.695Z,63.72
2022-09-06T04:07:44.465Z,63.80
2022-09-06T04:10:32.860Z,63.61
2022-09-06T04:13:21.306Z,64.09
2022-09-06T04:16:09.628Z,63.83
2022-09-06T04:19:00.895Z,64.68
2022-09-06T04:21:49.229Z,64.52
2022-09-06T04:24:37.951Z,64.33
2022-09-06T04:27:26.201Z,64.32
2022-09-06T04:30:14.521Z,64.37
2022-09-06T04:33:02.815Z,64.70
2022-09-06T04:35:53.172Z,64.18
2022-09-06T04:38:43.447Z,64.79
2022-09-06T04:41:31.681Z,64.50
2022-09-06T04:44:20.163Z,64.63
2022-09-06T04:47:12.828Z,64.39
2022-09-06T04:50:01.079Z,64.79
2022-09-06T04:52:50.719Z,64.75
2022-09-06T04:55:39.590Z,64.63
2022-09-06T04:58:27.893Z,64.37
2022-09-06T05:01:16.980Z,64.34
2022-09-06T05:04:05.219Z,64.59
2022-09-06T05:07:01.200Z,64.20
2022-09-06T05:09:50.846Z,64.07
2022-09-06T05:12:43.611Z,64.10
2022-09-06T05:15:33.702Z,64.22
2022-09-06T05:18:22.296Z,64.21
2022-09-06T05:21:10.602Z,64.52
2022-09-06T05:23:58.947Z,64.50
2022-09-06T05:26:48.691Z,64.12
2022-09-06T05:29:36.976Z,63.96
2022-09-06T05:32:25.410Z,63.91
2022-09-06T05:35:13.931Z,63.84
2022-09-06T05:38:02.282Z,63.67
2022-09-06T05:40:50.643Z,63.24
2022-09-06T05:43:40.325Z,63.46
2022-09-06T05:46:28.682Z,62.70
2022-09-06T05:49:17.035Z,62.99
2022-09-06T05:52:05.368Z,62.52
2022-09-06T05:54:53.620Z,62.49
2022-09-06T05:57:42.008Z,61.75
2022-09-06T06:00:31.730Z,61.21
2022-09-06T06:03:20.166Z,61.57
2022-09-06T06:06:08.839Z,60.83
2022-09-06T06:08:57.538Z,61.09
2022-09-06T06:11:45.907Z,61.30
2022-09-06T06:14:34.167Z,60.61
2022-09-06T06:17:24.069Z,60.77
2022-09-06T06:20:12.330Z,60.59
2022-09-06T06:23:00.608Z,60.63
2022-09-06T06:25:49.103Z,60.12
2022-09-06T06:28:38.097Z,59.82
2022-09-06T06:31:26.408Z,59.36
2022-09-06T06:34:16.533Z,59.31
2022-09-06T06:37:04.939Z,59.05
2022-09-06T06:39:53.273Z,58.00
2022-09-06T06:42:41.627Z,59.04
2022-09-06T06:45:29.980Z,58.21
2022-09-06T06:48:18.740Z,58.04
2022-09-06T06:51:08.837Z,57.81
2022-09-06T06:53:57.941Z,58.20
2022-09-06T06:56:46.217Z,57.60
2022-09-06T06:59:34.570Z,57.95
2022-09-06T07:02:22.985Z,57.58
2022-09-06T07:08:21.027Z,57.23
2022-09-06T07:11:11.075Z,56.74
2022-09-06T07:13:59.323Z,56.20
2022-09-06T07:16:47.837Z,56.36
2022-09-06T07:22:44.470Z,56.75
2022-09-06T07:25:34.431Z,56.84
2022-09-06T07:28:23.726Z,56.76
2022-09-06T07:34:20.936Z,55.84
2022-09-06T07:37:09.353Z,56.40
2022-09-06T07:39:57.690Z,56.69
2022-09-06T07:42:47.442Z,56.05
2022-09-06T07:45:35.998Z,55.70
2022-09-06T07:48:24.382Z,55.35
2022-09-06T07:51:14.666Z,54.60
2022-09-06T07:54:26.348Z,55.25
2022-09-06T07:57:12.174Z,54.93
2022-09-06T08:00:01.933Z,54.82
2022-09-06T08:03:00.120Z,54.35
2022-09-06T08:08:59.998Z,53.38
2022-09-06T08:11:48.969Z,53.68
2022-09-06T08:14:37.470Z,53.87
2022-09-06T08:17:27.145Z,53.21
2022-09-06T08:20:15.542Z,52.87
2022-09-06T08:23:04.760Z,52.23
2022-09-06T08:25:59.265Z,52.29
2022-09-06T08:28:48.104Z,51.77
2022-09-06T08:31:38.086Z,52.28
2022-09-06T08:34:27.937Z,52.25
2022-09-06T08:37:16.256Z,52.69
2022-09-06T08:40:05.168Z,52.75
2022-09-06T08:42:53.628Z,52.36
2022-09-06T08:45:42.895Z,52.17
2022-09-06T08:48:33.844Z,51.36
2022-09-06T08:51:57.453Z,50.42
2022-09-06T08:54:53.263Z,50.23
2022-09-06T08:58:00.720Z,50.00
2022-09-06T09:00:53.279Z,49.73
2022-09-06T09:03:44.575Z,49.54
2022-09-06T09:06:33.757Z,49.80
2022-09-06T09:09:23.471Z,49.79
2022-09-06T09:12:17.258Z,48.88
2022-09-06T09:15:10.699Z,48.45
2022-09-06T09:17:58.982Z,48.75
2022-09-06T09:20:47.380Z,47.84
2022-09-06T09:23:36.137Z,47.68
2022-09-06T09:26:28.100Z,47.01
2022-09-06T09:29:17.288Z,46.30
2022-09-06T09:32:05.963Z,46.73
2022-09-06T09:34:54.413Z,47.36
2022-09-06T09:37:46.533Z,45.84
2022-09-06T09:40:39.919Z,45.34
2022-09-06T09:43:31.896Z,44.99
2022-09-06T09:46:33.232Z,44.97
2022-09-06T09:49:30.679Z,45.25
2022-09-06T09:52:25.852Z,44.62
2022-09-06T09:55:14.066Z,44.97
2022-09-06T09:58:02.527Z,45.23
2022-09-06T10:01:11.417Z,44.66
2022-09-06T10:07:20.191Z,44.75
2022-09-06T10:10:13.876Z,44.22
2022-09-06T10:13:09.985Z,43.00
2022-09-06T10:16:03.938Z,44.95
2022-09-06T10:18:52.929Z,44.21
2022-09-06T10:21:41.282Z,43.62
2022-09-06T10:24:38.762Z,42.78
2022-09-06T10:27:28.761Z,44.10
2022-09-06T10:30:17.465Z,42.53
2022-09-06T10:33:17.951Z,42.97
2022-09-06T10:36:07.135Z,43.11
2022-09-06T10:39:03.513Z,43.45
2022-09-06T10:42:03.939Z,42.37
2022-09-06T10:45:12.966Z,41.91
2022-09-06T10:48:05.383Z,42.39
2022-09-06T10:50:58.585Z,42.40
2022-09-06T10:53:51.772Z,42.74
2022-09-06T10:56:45.195Z,42.97
2022-09-06T10:59:37.505Z,42.63
2022-09-06T11:02:39.427Z,42.51
2022-09-06T11:05:38.210Z,42.96
2022-09-06T11:08:51.159Z,41.62
2022-09-06T11:11:46.011Z,41.39
2022-09-06T11:14:36.461Z,41.03
2022-09-06T11:17:34.014Z,41.44
2022-09-06T11:20:31.946Z,41.77
2022-09-06T11:23:49.609Z,41.57
2022-09-06T11:26:44.614Z,41.72
2022-09-06T11:29:34.468Z,41.70
2022-09-06T11:32:35.390Z,41.30
2022-09-06T11:35:26.430Z,41.16
2022-09-06T11:38:24.815Z,41.21
2022-09-06T11:41:18.551Z,40.82
2022-09-06T11:44:08.110Z,41.13
2022-09-06T11:47:03.448Z,40.93
2022-09-06T11:49:52.575Z,40.91
2022-09-06T11:53:12.985Z,40.63
2022-09-06T11:56:29.376Z,40.33
2022-09-06T11:59:33.321Z,40.78
2022-09-06T12:02:35.362Z,39.93
2022-09-06T12:05:30.014Z,39.94
2022-09-06T12:08:33.059Z,39.67
2022-09-06T12:11:34.554Z,39.32
2022-09-06T12:14:36.027Z,38.96
2022-09-06T12:17:25.496Z,37.83
2022-09-06T12:20:52.429Z,37.89
2022-09-06T12:23:44.329Z,36.22
2022-09-06T12:26:54.472Z,36.27
2022-09-06T12:29:55.051Z,36.21
2022-09-06T12:32:46.549Z,35.58
2022-09-06T12:38:55.642Z,34.23
2022-09-06T12:41:50.064Z,33.89
2022-09-06T12:44:40.356Z,34.82
2022-09-06T12:47:32.200Z,34.87
2022-09-06T12:50:24.122Z,35.72
2022-09-06T12:53:24.691Z,36.31
2022-09-06T12:56:13.649Z,36.68
2022-09-06T12:59:27.319Z,37.24
2022-09-06T13:02:20.706Z,36.49
2022-09-06T13:05:12.869Z,35.85
2022-09-06T13:08:04.435Z,35.63
2022-09-06T13:10:54.224Z,35.59
2022-09-06T13:13:48.658Z,36.59
2022-09-06T13:16:43.404Z,37.25
2022-09-06T13:19:34.771Z,37.39
2022-09-06T13:22:41.225Z,36.86
2022-09-06T13:25:29.564Z,37.26
2022-09-06T13:28:29.672Z,37.60
2022-09-06T13:31:22.194Z,37.35
2022-09-06T13:34:11.855Z,38.29
2022-09-06T13:37:03.389Z,37.62
2022-09-06T13:39:52.379Z,38.16
2022-09-06T13:42:40.810Z,37.44
2022-09-06T13:45:31.097Z,38.30
2022-09-06T13:48:29.008Z,38.22
2022-09-06T13:51:19.361Z,38.26
2022-09-06T13:54:10.631Z,38.26
2022-09-06T13:56:59.254Z,38.44
2022-09-06T13:59:47.521Z,37.97
2022-09-06T14:02:35.964Z,38.18
2022-09-06T14:05:24.499Z,38.19
2022-09-06T14:08:14.240Z,38.18
2022-09-06T14:11:02.765Z,37.35
2022-09-06T14:13:51.085Z,37.72
2022-09-06T14:16:39.415Z,38.22
2022-09-06T14:19:27.835Z,37.99
2022-09-06T14:22:16.151Z,38.70
2022-09-06T14:25:07.571Z,38.02
2022-09-06T14:27:55.801Z,38.30
2022-09-06T14:30:44.128Z,38.37
2022-09-06T14:33:32.546Z,38.34
2022-09-06T14:36:23.352Z,38.14
2022-09-06T14:39:11.585Z,38.86
2022-09-06T14:42:01.241Z,39.18
2022-09-06T14:44:49.517Z,38.62
2022-09-06T14:47:37.757Z,38.63
2022-09-06T14:50:26.037Z,37.99
2022-09-06T14:53:38.938Z,37.92
2022-09-06T14:56:24.552Z,39.04
2022-09-06T14:59:14.645Z,38.68
2022-09-06T15:02:02.919Z,38.58
2022-09-06T15:04:51.199Z,38.76
2022-09-06T15:07:40.445Z,38.79
2022-09-06T15:10:28.776Z,38.84
2022-09-06T15:13:17.056Z,39.17
2022-09-06T15:16:07.853Z,38.86
2022-09-06T15:18:56.374Z,39.04
2022-09-06T15:21:44.653Z,39.27
2022-09-06T15:24:33.693Z,38.85
2022-09-06T15:27:22.646Z,39.75
2022-09-06T15:30:11.792Z,39.25
2022-09-06T15:33:01.454Z,39.53
2022-09-06T15:35:55.405Z,39.86
2022-09-06T15:38:47.440Z,39.78
2022-09-06T15:41:39.298Z,38.94
2022-09-06T15:44:27.597Z,39.20
2022-09-06T15:47:15.910Z,38.82
2022-09-06T15:50:07.174Z,39.18
2022-09-06T15:52:55.444Z,39.57
2022-09-06T15:55:59.295Z,39.67
2022-09-06T15:58:48.120Z,39.79
2022-09-06T16:01:36.915Z,39.43
2022-09-06T16:04:25.383Z,39.78
2022-09-06T16:07:15.207Z,39.59
2022-09-06T16:10:03.728Z,39.52
2022-09-06T16:12:53.017Z,39.94
2022-09-06T16:15:41.790Z,40.25
2022-09-06T16:18:31.918Z,40.37
2022-09-06T16:21:24.030Z,40.99
2022-09-06T16:24:15.636Z,41.24
2022-09-06T16:27:04.057Z,41.64
2022-09-06T16:29:52.751Z,42.04
2022-09-06T16:32:41.111Z,42.18
2022-09-06T16:35:29.456Z,42.10
2022-09-06T16:38:18.392Z,42.50
2022-09-06T16:41:14.509Z,42.79
2022-09-06T16:44:03.343Z,42.81
2022-09-06T16:46:53.527Z,43.35
2022-09-06T16:49:41.966Z,43.50
2022-09-06T16:52:30.351Z,43.54
2022-09-06T16:55:18.789Z,44.11
2022-09-06T16:58:08.552Z,44.33
2022-09-06T17:00:57.155Z,44.97
2022-09-06T17:03:45.546Z,45.03
2022-09-06T17:06:38.298Z,45.70
2022-09-06T17:09:26.684Z,46.13
2022-09-06T17:12:17.603Z,46.22
2022-09-06T17:15:08.924Z,46.39
2022-09-06T17:17:56.270Z,46.56
2022-09-06T17:20:55.882Z,46.48
2022-09-06T17:23:44.335Z,46.74
2022-09-06T17:26:34.013Z,46.53
2022-09-06T17:29:22.906Z,47.36
2022-09-06T17:32:12.558Z,48.07
2022-09-06T17:35:01.081Z,48.24
2022-09-06T17:37:49.478Z,48.72
2022-09-06T17:40:37.978Z,48.72
2022-09-06T17:43:26.295Z,48.99
2022-09-06T17:46:14.938Z,49.20
2022-09-06T17:49:05.476Z,49.73
2022-09-06T17:51:53.965Z,49.92
2022-09-06T17:54:42.493Z,50.04
2022-09-06T17:57:30.759Z,50.06
2022-09-06T18:00:19.454Z,49.65
2022-09-06T18:03:07.915Z,49.34
2022-09-06T18:06:03.806Z,49.55
2022-09-06T18:08:54.503Z,49.94
2022-09-06T18:11:45.699Z,50.24
2022-09-06T18:14:34.425Z,50.75
2022-09-06T18:17:24.102Z,50.66
2022-09-06T18:20:14.099Z,51.10
2022-09-06T18:23:04.093Z,50.82
2022-09-06T18:25:57.541Z,51.02
2022-09-06T18:28:46.064Z,51.00
2022-09-06T18:31:34.562Z,51.27
2022-09-06T18:34:23.175Z,51.24
2022-09-06T18:37:12.370Z,52.17
2022-09-06T18:40:02.222Z,52.30
2022-09-06T18:42:50.662Z,52.35
2022-09-06T18:45:39.009Z,52.45
2022-09-06T18:48:27.444Z,51.92
2022-09-06T18:51:16.427Z,52.06
2022-09-06T18:54:04.786Z,52.49
2022-09-06T18:56:54.492Z,52.73
2022-09-06T18:59:42.879Z,52.57
2022-09-06T19:02:31.398Z,52.58
2022-09-06T19:05:20.712Z,52.56
2022-09-06T19:08:08.960Z,52.72
2022-09-06T19:11:01.980Z,53.01
2022-09-06T19:13:54.725Z,53.49
2022-09-06T19:16:43.120Z,53.73
2022-09-06T19:19:31.530Z,53.69
2022-09-06T19:22:20.135Z,53.75
2022-09-06T19:25:10.861Z,53.73
2022-09-06T19:27:59.242Z,53.74
2022-09-06T19:30:48.965Z,53.80
2022-09-06T19:33:37.442Z,53.84
2022-09-06T19:36:27.781Z,53.90
2022-09-06T19:39:17.496Z,54.41
2022-09-06T19:42:06.313Z,54.21
2022-09-06T19:44:54.776Z,54.10
2022-09-06T19:47:45.125Z,54.61
2022-09-06T19:50:34.501Z,54.71
2022-09-06T19:53:22.824Z,54.85
2022-09-06T19:56:12.021Z,55.02
2022-09-06T19:59:02.229Z,54.48
2022-09-06T20:01:50.565Z,54.31
2022-09-06T20:04:40.260Z,54.39
2022-09-06T20:07:28.611Z,54.79
2022-09-06T20:10:17.174Z,54.66
2022-09-06T20:13:05.586Z,54.72
2022-09-06T20:15:54.647Z,54.76
2022-09-06T20:18:43.316Z,54.66
2022-09-06T20:21:33.300Z,54.18
2022-09-06T20:24:21.704Z,54.15
2022-09-06T20:27:09.961Z,54.24
2022-09-06T20:29:59.243Z,54.01
2022-09-06T20:32:47.555Z,54.22
2022-09-06T20:35:35.891Z,53.72
2022-09-06T20:38:25.917Z,53.57
2022-09-06T20:41:16.229Z,53.67
2022-09-06T20:44:04.868Z,54.07
2022-09-06T20:46:53.253Z,53.99
2022-09-06T20:49:41.578Z,54.02
2022-09-06T20:52:30.414Z,53.80
2022-09-06T20:55:20.257Z,53.91
2022-09-06T20:58:08.599Z,54.13
2022-09-06T21:00:57.734Z,53.76
2022-09-06T21:03:46.236Z,53.84
2022-09-06T21:06:36.177Z,53.72
2022-09-06T21:09:24.818Z,53.80
2022-09-06T21:12:14.470Z,53.29
2022-09-06T21:15:03.087Z,53.63
2022-09-06T21:17:54.205Z,53.31
2022-09-06T21:20:42.889Z,53.61
2022-09-06T21:23:33.405Z,53.11
2022-09-06T21:26:22.874Z,53.22
2022-09-06T21:29:12.996Z,53.17
2022-09-06T21:32:04.457Z,53.14
2022-09-06T21:34:53.032Z,52.81
2022-09-06T21:37:44.281Z,52.93
2022-09-06T21:40:35.385Z,52.68
2022-09-06T21:43:24.857Z,52.90
2022-09-06T21:46:17.983Z,52.35
2022-09-06T21:49:08.537Z,52.91
2022-09-06T21:51:57.179Z,52.69
2022-09-06T21:54:48.129Z,52.58
2022-09-06T21:57:36.660Z,52.19
2022-09-06T22:00:28.439Z,52.25
2022-09-06T22:03:18.785Z,52.41
2022-09-06T22:06:11.645Z,52.63
2022-09-06T22:09:02.422Z,52.36
2022-09-06T22:11:52.914Z,52.46
2022-09-06T22:14:41.821Z,51.90
2022-09-06T22:17:30.907Z,52.16
2022-09-06T22:20:22.210Z,52.98
2022-09-06T22:23:11.186Z,52.09
2022-09-06T22:26:04.624Z,52.38
2022-09-06T22:28:56.043Z,52.52
2022-09-06T22:31:44.896Z,52.18
2022-09-06T22:34:34.422Z,52.27
2022-09-06T22:37:24.450Z,52.01
2022-09-06T22:40:13.420Z,52.29
2022-09-06T22:43:02.556Z,52.22
2022-09-06T22:45:52.092Z,52.10
2022-09-06T22:48:41.255Z,52.15
2022-09-06T22:51:30.022Z,52.47
2022-09-06T22:54:20.072Z,52.75
2022-09-06T22:57:08.743Z,52.28
2022-09-06T22:59:57.546Z,52.58
2022-09-06T23:02:46.304Z,52.96
2022-09-06T23:05:35.066Z,53.19
2022-09-06T23:08:23.802Z,52.96
2022-09-06T23:11:16.065Z,52.94
2022-09-06T23:14:05.352Z,53.33
2022-09-06T23:16:53.962Z,53.02
2022-09-06T23:19:42.688Z,53.93
2022-09-06T23:22:31.755Z,53.45
2022-09-06T23:25:20.492Z,53.67
2022-09-06T23:28:10.515Z,53.95
2022-09-06T23:30:59.229Z,53.73
2022-09-06T23:33:47.977Z,53.59
2022-09-06T23:36:36.744Z,53.76
2022-09-06T23:39:25.408Z,53.81
2022-09-06T23:42:14.140Z,53.75
2022-09-06T23:45:04.214Z,53.59
2022-09-06T23:47:52.894Z,53.77
2022-09-06T23:50:41.659Z,53.92
2022-09-06T23:53:30.613Z,53.62
2022-09-06T23:56:19.240Z,54.17
2022-09-06T23:59:07.980Z,54.23
